Time;durP1;ratioP1;P1;durP2;ratioP2;P2;SDS_P1;SDS_P2;PMS_P1;PMS_P2;Temp;Humidity;BMP_temperature;BMP_pressure;BME280_temperature;BME280_humidity;BME280_pressure;Samples;Min_cycle;Max_cycle;Signal;HPM_P1;HPM_P2
2022/12/01 00:00:44;;;;;;;1.90;1.30;;;9.20;42.60;;;;;;5006150;28;20451;-74
2022/12/01 00:03:10;;;;;;;2.30;1.43;;;9.30;42.70;;;;;;5005364;28;20220;-72
2022/12/01 00:05:36;;;;;;;1.90;1.30;;;9.10;43.40;;;;;;5008445;28;21049;-72
2022/12/01 00:08:03;;;;;;;1.80;1.20;;;9.10;43.20;;;;;;4998380;28;20447;-72
2022/12/01 00:10:29;;;;;;;3.70;2.03;;;9.10;43.10;;;;;;5007224;28;20178;-72
2022/12/01 00:12:57;;;;;;;1.80;1.20;;;9.20;42.60;;;;;;5009301;28;20325;-72
2022/12/01 00:15:26;;;;;;;4.35;2.08;;;9.10;42.80;;;;;;5011084;28;20210;-73
2022/12/01 00:17:51;;;;;;;2.10;1.45;;;8.90;43.80;;;;;;5005905;28;20173;-72
2022/12/01 00:20:17;;;;;;;1.90;1.20;;;9.00;43.10;;;;;;4984968;28;20599;-73
2022/12/01 00:22:47;;;;;;;1.93;1.37;;;9.00;43.70;;;;;;4994586;28;20692;-72
2022/12/01 00:25:15;;;;;;;2.70;2.30;;;9.10;42.60;;;;;;5004524;28;20518;-73
2022/12/01 00:27:40;;;;;;;1.85;1.23;;;9.10;42.40;;;;;;5043687;22;20224;-69
2022/12/01 00:30:09;;;;;;;1.70;1.10;;;9.20;43.00;;;;;;5033161;28;20614;-69
2022/12/01 00:32:35;;;;;;;1.92;1.30;;;9.20;42.50;;;;;;5033224;28;20195;-70
2022/12/01 00:35:01;;;;;;;1.73;1.10;;;9.20;42.40;;;;;;5031293;28;20180;-69
2022/12/01 00:37:30;;;;;;;1.88;1.25;;;9.00;43.30;;;;;;5032968;28;20213;-70
2022/12/01 00:39:56;;;;;;;1.70;1.20;;;9.30;42.40;;;;;;5037228;28;20184;-70
2022/12/01 00:42:21;;;;;;;1.83;1.23;;;9.30;41.80;;;;;;5033188;28;20245;-69
2022/12/01 00:44:47;;;;;;;1.80;1.20;;;9.30;41.90;;;;;;5033100;28;20859;-69
2022/12/01 00:47:13;;;;;;;1.80;1.30;;;8.90;43.60;;;;;;5027176;28;20244;-69
2022/12/01 00:49:39;;;;;;;1.70;1.10;;;8.60;44.60;;;;;;5041531;28;20651;-69
2022/12/01 00:52:05;;;;;;;1.70;1.10;;;8.90;44.30;;;;;;5033409;28;20469;-69
2022/12/01 00:54:31;;;;;;;1.70;1.20;;;8.70;43.60;;;;;;5033028;28;20181;-69
2022/12/01 00:56:57;;;;;;;1.70;1.20;;;8.80;43.50;;;;;;5031496;28;20215;-69
2022/12/01 00:59:23;;;;;;;1.80;1.20;;;8.90;43.60;;;;;;5036117;28;20441;-69
2022/12/01 01:01:49;;;;;;;1.90;1.30;;;9.00;42.90;;;;;;5044177;28;20263;-69
2022/12/01 01:04:14;;;;;;;3.13;2.27;;;9.20;42.80;;;;;;5050979;28;20172;-69
2022/12/01 01:06:42;;;;;;;2.10;1.50;;;9.00;42.90;;;;;;5023133;28;20197;-70
2022/12/01 01:09:08;;;;;;;2.20;1.30;;;9.20;42.00;;;;;;5039413;28;20485;-69
2022/12/01 01:11:34;;;;;;;2.00;1.40;;;9.10;42.30;;;;;;5044588;28;20175;-70
2022/12/01 01:13:59;;;;;;;1.80;1.20;;;9.20;42.90;;;;;;5052082;28;20234;-69
2022/12/01 01:16:26;;;;;;;2.00;1.30;;;9.10;43.30;;;;;;5033061;28;20260;-69
2022/12/01 01:18:51;;;;;;;1.98;1.42;;;9.30;42.50;;;;;;5026953;28;20254;-69
2022/12/01 01:21:19;;;;;;;2.33;1.57;;;9.30;41.80;;;;;;5041864;28;20184;-69
2022/12/01 01:23:46;;;;;;;1.90;1.30;;;9.70;40.60;;;;;;5043090;28;20184;-69
2022/12/01 01:26:19;;;;;;;1.95;1.40;;;8.70;38.10;;;;;;5033073;28;20267;-69
2022/12/01 01:28:46;;;;;;;1.90;1.30;;;8.60;38.80;;;;;;5022320;28;20626;-69
2022/12/01 01:31:15;;;;;;;1.88;1.30;;;9.00;38.40;;;;;;5032345;28;20180;-69
2022/12/01 01:33:41;;;;;;;1.90;1.33;;;9.20;36.70;;;;;;5043956;28;20176;-69
2022/12/01 01:36:07;;;;;;;1.70;1.10;;;9.10;37.10;;;;;;5051264;28;20268;-69
2022/12/01 01:38:33;;;;;;;1.98;1.30;;;8.90;38.10;;;;;;5023474;28;20447;-69
2022/12/01 01:40:59;;;;;;;2.00;1.38;;;8.90;36.30;;;;;;5032028;28;20548;-69
2022/12/01 01:43:42;;;;;;;1.70;1.10;;;8.70;36.50;;;;;;5038466;28;20177;-69
2022/12/01 01:46:20;;;;;;;1.70;1.10;;;8.50;36.70;;;;;;5040758;28;20446;-69
2022/12/01 01:48:53;;;;;;;1.70;1.10;;;8.50;37.60;;;;;;5029584;28;20629;-69
2022/12/01 01:51:23;;;;;;;2.20;1.38;;;8.20;38.40;;;;;;5042279;28;20177;-69
2022/12/01 01:53:51;;;;;;;1.70;1.10;;;8.40;37.20;;;;;;5042169;28;20188;-69
2022/12/01 01:56:17;;;;;;;1.80;1.13;;;8.50;37.20;;;;;;5033222;28;20576;-69
2022/12/01 01:58:43;;;;;;;1.90;1.20;;;8.20;36.90;;;;;;5035376;28;20204;-68
2022/12/01 02:01:09;;;;;;;1.97;1.37;;;8.30;37.70;;;;;;5051381;28;20202;-69
2022/12/01 02:03:37;;;;;;;2.15;1.52;;;8.20;37.40;;;;;;5046073;28;20426;-69
2022/12/01 02:06:03;;;;;;;3.25;1.90;;;8.30;37.10;;;;;;5043136;28;20195;-69
2022/12/01 02:08:31;;;;;;;1.80;1.10;;;7.80;37.70;;;;;;5039200;28;20201;-70
2022/12/01 02:11:22;;;;;;;1.80;1.20;;;8.00;38.50;;;;;;5035943;28;20207;-69
2022/12/01 02:14:17;;;;;;;1.90;1.35;;;8.10;37.50;;;;;;5036384;28;20181;-70
2022/12/01 02:16:45;;;;;;;1.77;1.17;;;8.40;36.60;;;;;;5031662;28;20245;-68
2022/12/01 02:19:39;;;;;;;1.90;1.30;;;8.70;36.10;;;;;;5038120;28;20192;-69
2022/12/01 02:22:37;;;;;;;2.42;1.58;;;8.70;36.40;;;;;;5023724;28;20184;-69
2022/12/01 02:25:24;;;;;;;1.90;1.30;;;8.50;35.70;;;;;;5013446;28;20199;-70
2022/12/01 02:28:14;;;;;;;1.95;1.30;;;8.60;34.80;;;;;;5042566;28;20204;-70
2022/12/01 02:30:43;;;;;;;2.00;1.40;;;8.50;35.60;;;;;;5030244;28;20177;-70
2022/12/01 02:33:22;;;;;;;4.20;1.77;;;8.70;35.50;;;;;;5028497;28;20592;-69
2022/12/01 02:36:03;;;;;;;1.90;1.30;;;8.60;35.30;;;;;;5032065;28;20183;-70
2022/12/01 02:38:51;;;;;;;1.70;1.00;;;8.50;35.70;;;;;;5031733;28;20286;-69
2022/12/01 02:41:26;;;;;;;1.65;1.05;;;8.50;35.40;;;;;;5026822;28;20551;-69
2022/12/01 02:44:00;;;;;;;2.03;1.20;;;8.60;34.80;;;;;;5036246;28;20183;-69
2022/12/01 02:46:33;;;;;;;1.85;1.30;;;8.90;35.60;;;;;;5033569;28;20198;-69
2022/12/01 02:49:04;;;;;;;1.70;1.10;;;9.30;33.50;;;;;;5042332;28;20207;-70
2022/12/01 02:51:32;;;;;;;1.85;1.27;;;9.20;33.60;;;;;;5034882;28;20181;-69
2022/12/01 02:54:01;;;;;;;1.92;1.30;;;9.40;32.80;;;;;;5020295;28;20184;-69
2022/12/01 02:56:26;;;;;;;1.90;1.30;;;9.10;34.00;;;;;;5030408;28;20181;-69
2022/12/01 02:58:52;;;;;;;3.40;2.10;;;9.10;35.60;;;;;;5034026;28;20223;-69
2022/12/01 03:01:44;;;;;;;1.90;1.20;;;9.20;34.10;;;;;;5039784;28;20566;-69
2022/12/01 03:04:32;;;;;;;1.73;1.13;;;9.30;35.00;;;;;;5048502;28;20552;-72
2022/12/01 03:07:10;;;;;;;4.25;2.50;;;9.20;34.80;;;;;;5032856;28;20216;-69
2022/12/01 03:09:48;;;;;;;2.90;1.85;;;9.00;35.60;;;;;;5037907;28;20260;-69
2022/12/01 03:12:25;;;;;;;2.00;1.30;;;9.10;35.40;;;;;;5031119;28;20157;-69
2022/12/01 03:15:00;;;;;;;1.80;1.20;;;9.10;35.80;;;;;;5031097;28;20203;-69
2022/12/01 03:17:37;;;;;;;1.80;1.20;;;9.20;35.10;;;;;;5045947;28;20226;-69
2022/12/01 03:20:26;;;;;;;2.80;1.42;;;9.30;35.40;;;;;;5038945;28;20258;-69
2022/12/01 03:22:58;;;;;;;2.70;1.45;;;9.20;35.50;;;;;;5030357;28;20624;-68
2022/12/01 03:25:26;;;;;;;1.80;1.13;;;9.40;36.40;;;;;;5036423;28;20731;-69
2022/12/01 03:27:55;;;;;;;1.90;1.40;;;9.30;36.00;;;;;;5042670;28;20210;-69
2022/12/01 03:30:23;;;;;;;1.90;1.40;;;8.90;36.80;;;;;;5037654;28;20191;-68
2022/12/01 03:32:57;;;;;;;4.72;2.80;;;8.70;38.20;;;;;;5030734;28;20244;-68
2022/12/01 03:35:29;;;;;;;2.03;1.50;;;8.80;38.00;;;;;;5030880;28;20153;-69
2022/12/01 03:38:08;;;;;;;1.70;1.10;;;8.90;38.60;;;;;;5022067;28;20202;-69
2022/12/01 03:40:36;;;;;;;6.35;1.92;;;8.90;38.20;;;;;;5029766;28;20237;-69
2022/12/01 03:43:12;;;;;;;3.10;1.73;;;8.70;38.40;;;;;;5038974;28;20173;-69
2022/12/01 03:46:01;;;;;;;3.55;2.47;;;8.70;38.90;;;;;;5011394;28;20248;-68
2022/12/01 03:48:29;;;;;;;1.80;1.23;;;8.40;38.70;;;;;;5040056;28;20227;-69
2022/12/01 03:51:13;;;;;;;1.90;1.25;;;7.80;41.30;;;;;;5045889;28;20180;-69
2022/12/01 03:54:25;;;;;;;1.90;1.30;;;8.30;39.90;;;;;;5036786;28;20556;-69
2022/12/01 03:57:04;;;;;;;1.90;1.25;;;8.30;40.10;;;;;;5024440;28;20246;-69
2022/12/01 03:59:31;;;;;;;2.00;1.30;;;8.40;39.70;;;;;;5025834;28;20222;-68
2022/12/01 04:01:57;;;;;;;2.38;1.58;;;8.40;39.30;;;;;;5040911;28;20195;-69
2022/12/01 04:04:22;;;;;;;2.57;1.80;;;8.60;40.40;;;;;;5042285;28;20188;-69
2022/12/01 04:06:49;;;;;;;1.70;1.20;;;8.50;39.10;;;;;;5048724;28;20237;-68
2022/12/01 04:09:15;;;;;;;1.80;1.20;;;8.60;38.90;;;;;;5048778;28;20223;-69
2022/12/01 04:14:25;;;;;;;2.00;1.58;;;8.70;38.70;;;;;;5037097;28;20452;-69
2022/12/01 04:16:51;;;;;;;1.80;1.20;;;8.40;39.30;;;;;;5050658;28;20180;-69
2022/12/01 04:19:16;;;;;;;7.93;1.93;;;8.20;40.00;;;;;;5042480;28;20647;-70
2022/12/01 04:21:42;;;;;;;1.80;1.20;;;8.10;40.20;;;;;;5038883;28;20536;-69
2022/12/01 04:24:08;;;;;;;1.80;1.10;;;8.30;39.70;;;;;;5042373;28;20195;-69
2022/12/01 04:26:35;;;;;;;2.00;1.37;;;8.50;39.50;;;;;;5053687;28;20200;-69
2022/12/01 04:29:03;;;;;;;1.90;1.30;;;8.50;39.60;;;;;;5052567;28;20329;-71
2022/12/01 04:31:29;;;;;;;1.67;1.10;;;8.40;40.50;;;;;;5024592;28;20566;-69
2022/12/01 04:33:56;;;;;;;2.30;1.50;;;8.30;39.60;;;;;;5041288;28;20181;-70
2022/12/01 04:36:22;;;;;;;2.80;2.00;;;8.30;40.00;;;;;;5044080;28;20422;-70
2022/12/01 04:38:48;;;;;;;2.10;1.65;;;8.30;39.90;;;;;;5042400;28;20295;-69
2022/12/01 04:41:14;;;;;;;1.80;1.27;;;8.30;39.90;;;;;;5030503;28;20306;-69
2022/12/01 04:43:40;;;;;;;1.80;1.20;;;8.30;39.70;;;;;;5026181;28;20180;-70
2022/12/01 04:46:06;;;;;;;2.47;1.83;;;8.50;39.50;;;;;;5033528;28;20537;-69
2022/12/01 04:48:34;;;;;;;1.92;1.30;;;8.50;38.80;;;;;;5032792;28;20201;-70
2022/12/01 04:51:01;;;;;;;1.75;1.10;;;8.50;39.80;;;;;;5032999;28;20173;-69
2022/12/01 04:53:26;;;;;;;1.80;1.20;;;8.70;38.90;;;;;;5050188;28;20272;-69
2022/12/01 04:55:52;;;;;;;1.80;1.20;;;8.50;38.70;;;;;;5033860;28;20200;-69
2022/12/01 04:58:17;;;;;;;3.60;3.17;;;8.30;39.40;;;;;;5033441;28;20197;-70
2022/12/01 05:00:43;;;;;;;1.90;1.20;;;8.40;39.20;;;;;;5031533;28;20183;-72
2022/12/01 05:03:09;;;;;;;1.70;1.07;;;8.50;39.10;;;;;;5040536;28;20184;-70
2022/12/01 05:05:35;;;;;;;2.00;1.37;;;8.30;38.80;;;;;;5037728;28;20809;-70
2022/12/01 05:08:00;;;;;;;3.90;1.40;;;8.30;39.60;;;;;;5032495;28;20192;-70
2022/12/01 05:10:26;;;;;;;3.03;1.40;;;8.60;39.80;;;;;;5044831;28;20172;-70
2022/12/01 05:12:52;;;;;;;3.30;1.40;;;8.40;39.20;;;;;;5043124;28;20172;-69
2022/12/01 05:15:17;;;;;;;1.70;1.10;;;8.40;39.50;;;;;;5043150;28;20180;-69
2022/12/01 05:17:43;;;;;;;2.63;1.73;;;8.40;38.80;;;;;;5033865;28;20200;-69
2022/12/01 05:23:01;;;;;;;2.53;1.75;;;8.20;39.40;;;;;;5031619;28;20231;-69
2022/12/01 05:25:27;;;;;;;3.60;1.93;;;8.00;39.90;;;;;;5049523;28;20192;-69
2022/12/01 05:27:52;;;;;;;1.80;1.20;;;8.00;40.30;;;;;;5032823;28;20247;-70
2022/12/01 05:30:18;;;;;;;7.10;2.57;;;7.90;40.40;;;;;;5039675;28;20195;-67
2022/12/01 05:32:43;;;;;;;1.87;1.10;;;7.90;40.70;;;;;;5042274;28;20664;-68
2022/12/01 05:35:09;;;;;;;2.73;1.30;;;8.20;39.60;;;;;;5030630;28;20180;-67
2022/12/01 05:37:34;;;;;;;2.20;1.43;;;8.40;40.60;;;;;;5052343;28;20200;-70
2022/12/01 05:40:00;;;;;;;1.70;1.10;;;8.30;39.90;;;;;;5052783;28;20271;-69
2022/12/01 05:42:26;;;;;;;2.22;1.42;;;8.30;39.50;;;;;;5052258;28;20186;-69
2022/12/01 05:44:52;;;;;;;1.90;1.30;;;8.20;40.40;;;;;;5043290;28;20641;-69
2022/12/01 05:47:17;;;;;;;1.80;1.20;;;8.40;39.90;;;;;;5038462;28;20303;-69
2022/12/01 05:49:43;;;;;;;2.00;1.40;;;8.50;39.30;;;;;;5043482;28;20184;-69
2022/12/01 05:52:08;;;;;;;1.80;1.10;;;8.70;39.30;;;;;;5049158;28;20176;-69
2022/12/01 05:54:34;;;;;;;2.33;1.77;;;8.50;39.20;;;;;;5052256;28;20174;-69
2022/12/01 05:57:00;;;;;;;2.67;1.93;;;8.40;39.60;;;;;;5037803;28;20203;-69
2022/12/01 05:59:26;;;;;;;2.65;1.48;;;8.40;39.70;;;;;;5038500;28;20177;-69
2022/12/01 06:01:52;;;;;;;2.00;1.30;;;8.30;39.90;;;;;;5030256;28;20191;-69
2022/12/01 06:04:17;;;;;;;2.00;1.40;;;8.20;40.50;;;;;;5030386;28;20550;-69
2022/12/01 06:06:43;;;;;;;1.70;1.10;;;8.60;40.40;;;;;;5028768;28;20247;-70
2022/12/01 06:09:09;;;;;;;1.80;1.20;;;8.40;40.00;;;;;;5048078;28;20184;-69
2022/12/01 06:11:35;;;;;;;1.70;1.10;;;8.60;39.10;;;;;;5040933;28;20183;-69
2022/12/01 06:14:00;;;;;;;3.53;2.43;;;8.60;38.90;;;;;;5043563;28;20627;-69
2022/12/01 06:16:26;;;;;;;1.77;1.13;;;8.50;39.10;;;;;;5052198;28;20250;-69
2022/12/01 06:18:52;;;;;;;2.73;1.43;;;8.40;39.20;;;;;;5021246;28;20554;-69
2022/12/01 06:21:17;;;;;;;1.80;1.13;;;8.30;39.60;;;;;;5040700;28;20185;-69
2022/12/01 06:23:43;;;;;;;1.80;1.10;;;8.30;38.60;;;;;;5043239;28;20362;-68
2022/12/01 06:26:08;;;;;;;1.90;1.30;;;8.00;39.20;;;;;;5051705;28;20584;-69
2022/12/01 06:28:34;;;;;;;2.10;1.20;;;8.00;39.60;;;;;;5033421;28;20564;-69
2022/12/01 06:31:00;;;;;;;2.10;1.50;;;8.10;39.90;;;;;;5041204;22;20237;-73
2022/12/01 06:33:25;;;;;;;1.70;1.10;;;8.20;39.70;;;;;;5017995;28;20196;-73
2022/12/01 06:36:03;;;;;;;1.77;1.10;;;8.20;39.40;;;;;;5011323;28;20228;-73
2022/12/01 06:38:31;;;;;;;1.85;1.20;;;8.40;39.60;;;;;;5008734;28;20180;-73
2022/12/01 06:40:57;;;;;;;2.13;1.40;;;8.40;39.00;;;;;;4985803;28;20209;-74
2022/12/01 06:43:22;;;;;;;1.77;1.10;;;8.40;39.10;;;;;;5013421;28;20197;-73
2022/12/01 06:45:48;;;;;;;2.53;1.50;;;8.60;39.60;;;;;;5016769;28;20193;-73
2022/12/01 06:48:13;;;;;;;2.27;1.50;;;8.40;40.20;;;;;;5009797;28;20268;-73
2022/12/01 06:50:39;;;;;;;1.80;1.20;;;8.40;39.30;;;;;;5011350;28;20200;-73
2022/12/01 06:53:05;;;;;;;1.70;1.10;;;8.20;39.70;;;;;;5011063;28;20184;-73
2022/12/01 06:55:30;;;;;;;1.80;1.20;;;8.70;39.80;;;;;;5012000;28;20185;-73
2022/12/01 06:57:59;;;;;;;1.80;1.20;;;8.30;39.10;;;;;;5011393;28;20517;-73
2022/12/01 07:00:25;;;;;;;3.20;1.70;;;8.30;39.30;;;;;;5010849;28;20196;-73
2022/12/01 07:02:51;;;;;;;1.80;1.20;;;8.30;39.40;;;;;;5027248;28;20259;-73
2022/12/01 07:05:17;;;;;;;3.80;1.90;;;8.40;39.30;;;;;;5022764;28;20429;-73
2022/12/01 07:07:42;;;;;;;2.00;1.23;;;8.40;39.70;;;;;;5031055;28;20455;-73
2022/12/01 07:10:09;;;;;;;1.83;1.30;;;8.40;39.50;;;;;;5018890;28;20201;-73
2022/12/01 07:12:35;;;;;;;1.77;1.10;;;8.50;39.20;;;;;;5030785;28;20407;-74
2022/12/01 07:15:01;;;;;;;2.00;1.40;;;8.60;38.90;;;;;;5013329;28;20651;-73
2022/12/01 07:17:28;;;;;;;1.90;1.20;;;8.60;38.80;;;;;;5030936;28;20404;-73
2022/12/01 07:19:54;;;;;;;2.20;1.50;;;8.50;38.40;;;;;;5030988;28;20438;-73
2022/12/01 07:22:19;;;;;;;2.37;1.40;;;8.90;39.50;;;;;;5014147;28;20189;-73
2022/12/01 07:24:45;;;;;;;1.80;1.20;;;8.20;39.70;;;;;;5019657;28;20184;-73
2022/12/01 07:27:10;;;;;;;2.03;1.40;;;8.20;40.50;;;;;;5016038;28;20209;-73
2022/12/01 07:29:36;;;;;;;3.00;1.80;;;8.10;40.20;;;;;;5024863;28;20234;-73
2022/12/01 07:32:01;;;;;;;2.23;1.67;;;8.00;40.40;;;;;;5016100;28;20283;-73
2022/12/01 07:34:27;;;;;;;1.70;1.13;;;8.30;40.40;;;;;;5026115;28;20189;-73
2022/12/01 07:36:53;;;;;;;3.97;1.50;;;8.30;39.90;;;;;;5019076;28;20517;-73
2022/12/01 07:39:18;;;;;;;1.90;1.30;;;8.40;39.90;;;;;;5031036;28;20579;-73
2022/12/01 07:41:44;;;;;;;1.83;1.20;;;8.40;39.90;;;;;;5019554;28;20230;-73
2022/12/01 07:44:10;;;;;;;1.80;1.20;;;8.10;39.90;;;;;;5026351;28;20187;-73
2022/12/01 07:46:36;;;;;;;3.23;1.87;;;8.10;40.40;;;;;;5019302;28;20549;-73
2022/12/01 07:49:05;;;;;;;1.90;1.30;;;8.30;40.50;;;;;;5011784;28;20482;-73
2022/12/01 07:51:31;;;;;;;1.90;1.30;;;8.50;40.20;;;;;;5012793;28;20679;-73
2022/12/01 07:54:01;;;;;;;1.80;1.23;;;7.90;40.80;;;;;;5026386;28;20188;-73
2022/12/01 07:56:27;;;;;;;1.85;1.40;;;7.80;41.30;;;;;;5017897;28;20431;-73
2022/12/01 07:58:53;;;;;;;1.80;1.10;;;7.90;41.00;;;;;;5020382;28;20184;-84
2022/12/01 08:01:21;;;;;;;1.83;1.27;;;9.00;41.30;;;;;;5007276;28;20284;-85
2022/12/01 08:03:56;;;;;;;1.80;1.30;;;8.10;40.90;;;;;;5011263;28;20189;-85
2022/12/01 08:06:22;;;;;;;2.75;1.75;;;8.30;40.60;;;;;;5025362;28;20214;-85
2022/12/01 08:08:48;;;;;;;1.92;1.30;;;8.80;40.80;;;;;;5020051;28;20218;-74
2022/12/01 08:11:20;;;;;;;1.80;1.37;;;8.40;39.90;;;;;;5033829;28;20196;-74
2022/12/01 08:13:46;;;;;;;2.10;1.50;;;8.10;40.60;;;;;;5029285;28;20437;-74
2022/12/01 08:16:21;;;;;;;2.13;1.60;;;8.30;41.30;;;;;;5022664;28;20743;-75
2022/12/01 08:18:47;;;;;;;2.00;1.27;;;8.60;41.50;;;;;;5018995;28;20192;-74
2022/12/01 08:21:16;;;;;;;1.90;1.40;;;8.40;40.30;;;;;;4993611;28;20205;-74
2022/12/01 08:23:42;;;;;;;3.75;2.17;;;8.20;39.90;;;;;;5013240;28;20436;-75
2022/12/01 08:26:14;;;;;;;1.70;1.10;;;8.30;40.40;;;;;;5021855;28;20228;-74
2022/12/01 08:28:40;;;;;;;1.98;1.50;;;8.20;40.50;;;;;;5016244;28;20208;-75
2022/12/01 08:31:26;;;;;;;2.10;1.52;;;8.20;40.70;;;;;;5028517;28;20652;-74
2022/12/01 08:33:53;;;;;;;1.80;1.27;;;8.30;40.60;;;;;;5011672;28;20182;-73
2022/12/01 08:36:19;;;;;;;1.70;1.10;;;8.40;40.80;;;;;;5005329;28;20567;-74
2022/12/01 08:38:47;;;;;;;1.80;1.20;;;8.50;40.50;;;;;;5025667;28;20191;-75
2022/12/01 08:41:13;;;;;;;1.85;1.27;;;8.20;41.70;;;;;;5012872;28;20251;-75
2022/12/01 08:43:43;;;;;;;2.53;1.83;;;8.20;41.50;;;;;;5014781;28;20215;-75
2022/12/01 08:46:09;;;;;;;2.25;1.60;;;8.00;41.70;;;;;;5024786;28;20207;-75
2022/12/01 08:48:34;;;;;;;2.13;1.42;;;8.20;41.70;;;;;;5027484;28;20227;-77
2022/12/01 08:51:04;;;;;;;3.83;1.67;;;8.20;41.80;;;;;;5015887;28;20205;-77
2022/12/01 08:53:31;;;;;;;2.10;1.52;;;8.40;41.20;;;;;;5005396;28;20436;-77
2022/12/01 08:56:02;;;;;;;2.10;1.38;;;8.60;41.00;;;;;;5013278;28;20185;-77
2022/12/01 08:58:28;;;;;;;1.90;1.30;;;8.30;41.00;;;;;;5015374;28;20192;-75
2022/12/01 09:01:04;;;;;;;4.10;2.77;;;8.60;41.90;;;;;;5015244;28;20271;-75
2022/12/01 09:03:30;;;;;;;2.13;1.50;;;8.30;41.80;;;;;;5012207;28;20945;-80
2022/12/01 09:06:33;;;;;;;1.90;1.30;;;8.50;42.00;;;;;;5016957;28;20197;-74
2022/12/01 09:08:59;;;;;;;4.43;1.98;;;8.60;42.00;;;;;;4972216;28;20758;-74
2022/12/01 09:11:25;;;;;;;1.90;1.40;;;8.60;42.20;;;;;;4978475;28;20325;-73
2022/12/01 09:13:51;;;;;;;2.20;1.60;;;8.30;42.10;;;;;;4971140;28;20261;-73
2022/12/01 09:16:17;;;;;;;1.90;1.40;;;8.70;42.00;;;;;;4971161;28;20430;-74
2022/12/01 09:18:45;;;;;;;1.90;1.48;;;8.60;41.70;;;;;;4970578;28;20229;-73
2022/12/01 09:21:19;;;;;;;1.80;1.20;;;8.70;42.70;;;;;;4977753;28;20708;-74
2022/12/01 09:23:46;;;;;;;1.80;1.20;;;8.50;42.40;;;;;;4973824;28;20702;-73
2022/12/01 09:26:17;;;;;;;1.90;1.40;;;8.90;43.10;;;;;;4974589;28;20214;-72
2022/12/01 09:28:42;;;;;;;2.92;1.90;;;8.20;43.30;;;;;;4965623;28;20173;-73
2022/12/01 09:31:10;;;;;;;1.80;1.30;;;8.90;43.50;;;;;;4981501;28;20232;-73
2022/12/01 09:33:36;;;;;;;1.90;1.30;;;8.60;43.20;;;;;;4980298;28;20496;-73
2022/12/01 09:36:03;;;;;;;1.80;1.30;;;8.50;43.40;;;;;;4973407;28;20236;-73
2022/12/01 09:38:30;;;;;;;2.33;1.75;;;8.40;42.20;;;;;;4976968;28;20436;-73
2022/12/01 09:40:59;;;;;;;2.17;1.60;;;8.50;42.70;;;;;;4978117;28;20210;-73
2022/12/01 09:43:28;;;;;;;1.90;1.40;;;8.60;43.20;;;;;;5008093;28;20211;-73
2022/12/01 09:46:06;;;;;;;2.00;1.30;;;9.10;43.50;;;;;;5008563;28;20216;-73
2022/12/01 09:48:42;;;;;;;3.55;1.85;;;8.70;42.90;;;;;;5021662;28;20242;-73
2022/12/01 09:51:20;;;;;;;2.17;1.38;;;8.80;43.40;;;;;;5023421;28;20287;-73
2022/12/01 09:53:50;;;;;;;3.25;1.50;;;8.20;43.80;;;;;;5024373;28;20185;-73
2022/12/01 09:56:23;;;;;;;3.10;2.53;;;8.80;44.40;;;;;;5007075;28;20190;-73
2022/12/01 09:59:06;;;;;;;2.20;1.50;;;8.30;44.90;;;;;;5025962;28;20168;-73
2022/12/01 10:01:37;;;;;;;1.80;1.30;;;8.30;44.00;;;;;;5026042;28;20699;-76
2022/12/01 10:04:26;;;;;;;1.90;1.40;;;8.60;42.90;;;;;;5005317;28;20284;-74
2022/12/01 10:07:18;;;;;;;1.80;1.30;;;8.70;42.70;;;;;;5017823;28;20257;-74
2022/12/01 10:09:59;;;;;;;2.20;1.40;;;8.60;44.20;;;;;;5019863;28;20208;-74
2022/12/01 10:12:30;;;;;;;2.03;1.30;;;8.30;44.30;;;;;;5023136;28;20201;-74
2022/12/01 10:15:29;;;;;;;1.90;1.30;;;8.50;44.90;;;;;;5017164;28;20181;-73
2022/12/01 10:18:27;;;;;;;1.80;1.20;;;8.60;44.20;;;;;;4926605;29;20604;-74
2022/12/01 10:21:01;;;;;;;2.33;1.52;;;8.40;45.00;;;;;;4932021;29;20295;-73
2022/12/01 10:23:42;;;;;;;1.90;1.35;;;8.50;45.80;;;;;;4929632;29;20176;-74
2022/12/01 10:26:27;;;;;;;3.13;2.42;;;8.60;45.20;;;;;;4932128;29;20203;-74
2022/12/01 10:29:03;;;;;;;1.80;1.23;;;8.80;43.90;;;;;;4928460;29;20192;-73
2022/12/01 10:31:45;;;;;;;2.90;1.98;;;8.50;43.40;;;;;;4929679;29;20223;-73
2022/12/01 10:34:19;;;;;;;1.80;1.30;;;8.50;43.60;;;;;;4929869;29;20741;-72
2022/12/01 10:36:45;;;;;;;2.22;1.50;;;8.50;44.50;;;;;;4932218;29;20187;-75
2022/12/01 10:39:24;;;;;;;1.90;1.30;;;8.60;44.00;;;;;;4931984;29;20179;-75
2022/12/01 10:41:50;;;;;;;1.95;1.50;;;8.60;43.50;;;;;;4930667;29;20211;-75
2022/12/01 10:44:17;;;;;;;2.60;1.85;;;8.40;44.70;;;;;;4928712;29;20224;-72
2022/12/01 10:46:53;;;;;;;1.70;1.20;;;8.50;44.50;;;;;;4930056;29;20210;-72
2022/12/01 10:49:19;;;;;;;2.78;1.85;;;8.60;43.40;;;;;;4931648;29;20182;-72
2022/12/01 10:51:54;;;;;;;2.00;1.40;;;8.90;43.50;;;;;;4931891;29;20204;-72
2022/12/01 10:54:31;;;;;;;2.17;1.63;;;10.40;43.30;;;;;;4971054;28;20192;-72
2022/12/01 10:56:57;;;;;;;2.45;1.30;;;8.60;43.30;;;;;;5016948;28;20216;-73
2022/12/01 10:59:31;;;;;;;1.83;1.30;;;8.80;43.20;;;;;;5023347;28;20192;-72
2022/12/01 11:01:58;;;;;;;2.15;1.58;;;8.70;43.60;;;;;;5015337;28;20223;-73
2022/12/01 11:04:49;;;;;;;2.00;1.40;;;8.60;43.90;;;;;;5017757;28;20188;-73
2022/12/01 11:07:20;;;;;;;1.90;1.40;;;8.70;44.60;;;;;;5023612;28;20729;-73
2022/12/01 11:10:12;;;;;;;2.00;1.48;;;8.90;43.00;;;;;;5020040;28;20180;-72
2022/12/01 11:12:38;;;;;;;3.65;2.58;;;8.60;43.90;;;;;;5013749;28;20185;-73
2022/12/01 11:15:05;;;;;;;1.83;1.38;;;9.10;44.00;;;;;;5014388;28;20581;-72
2022/12/01 11:17:36;;;;;;;1.90;1.20;;;8.40;44.70;;;;;;5025614;28;20275;-73
2022/12/01 11:20:27;;;;;;;1.95;1.48;;;8.80;44.10;;;;;;5023060;28;20200;-73
2022/12/01 11:23:28;;;;;;;1.90;1.35;;;8.70;44.10;;;;;;4995533;28;20801;-72
2022/12/01 11:26:13;;;;;;;1.98;1.33;;;8.60;44.70;;;;;;5000650;28;20679;-72
2022/12/01 11:28:57;;;;;;;1.70;1.17;;;8.80;43.90;;;;;;5014877;28;20177;-75
2022/12/01 11:31:35;;;;;;;1.70;1.20;;;8.80;43.90;;;;;;5014414;28;20224;-75
2022/12/01 11:34:00;;;;;;;2.80;1.70;;;8.90;43.60;;;;;;5015116;28;20640;-73
2022/12/01 11:36:32;;;;;;;1.70;1.10;;;8.90;43.20;;;;;;5015098;28;20199;-72
2022/12/01 11:39:00;;;;;;;1.85;1.35;;;8.80;42.80;;;;;;5016360;28;20669;-75
2022/12/01 11:41:36;;;;;;;1.77;1.30;;;8.80;43.90;;;;;;5007697;28;20277;-73
2022/12/01 11:44:05;;;;;;;2.10;1.58;;;8.80;44.10;;;;;;5018305;28;20196;-73
2022/12/01 11:46:37;;;;;;;2.97;2.10;;;8.70;43.50;;;;;;5014695;28;20197;-72
2022/12/01 11:49:03;;;;;;;2.10;1.52;;;8.80;43.20;;;;;;5021866;28;20195;-72
2022/12/01 11:51:36;;;;;;;1.80;1.27;;;9.20;44.00;;;;;;5011910;28;20677;-72
2022/12/01 11:54:22;;;;;;;1.70;1.10;;;9.40;43.60;;;;;;5009319;28;20432;-72
2022/12/01 11:56:49;;;;;;;2.10;1.58;;;9.30;42.90;;;;;;5011266;28;20210;-72
2022/12/01 11:59:20;;;;;;;2.95;1.90;;;9.10;42.70;;;;;;5024246;28;20185;-75
2022/12/01 12:01:48;;;;;;;1.70;1.20;;;9.10;42.40;;;;;;4997465;28;20307;-76
2022/12/01 12:05:01;;;;;;;2.00;1.60;;;8.60;44.60;;;;;;5021717;28;20205;-73
2022/12/01 12:07:41;;;;;;;2.33;1.63;;;8.70;43.00;;;;;;4933519;29;20223;-73
2022/12/01 12:10:25;;;;;;;4.47;2.80;;;8.80;43.30;;;;;;4932496;29;20216;-73
2022/12/01 12:13:05;;;;;;;1.90;1.30;;;8.70;43.00;;;;;;4932141;29;20602;-73
2022/12/01 12:15:40;;;;;;;1.90;1.33;;;8.70;44.10;;;;;;4931079;29;20261;-73
2022/12/01 12:18:35;;;;;;;2.50;1.75;;;8.80;43.70;;;;;;4933622;29;20255;-72
2022/12/01 12:21:16;;;;;;;3.08;1.60;;;8.90;42.60;;;;;;4928005;29;20207;-72
2022/12/01 12:24:12;;;;;;;2.00;1.45;;;9.00;42.60;;;;;;4929308;29;20555;-73
2022/12/01 12:26:50;;;;;;;2.15;1.40;;;9.10;42.10;;;;;;4930228;29;20711;-72
2022/12/01 12:29:48;;;;;;;2.50;1.75;;;9.00;42.20;;;;;;4931608;29;20200;-72
2022/12/01 12:32:34;;;;;;;1.70;1.20;;;9.00;42.80;;;;;;4929322;29;20223;-74
2022/12/01 12:35:28;;;;;;;2.30;1.52;;;8.70;43.20;;;;;;4934041;29;20194;-74
2022/12/01 12:38:22;;;;;;;2.00;1.35;;;8.80;43.10;;;;;;4934338;29;20750;-72
2022/12/01 12:41:18;;;;;;;1.85;1.10;;;8.60;43.60;;;;;;4932130;29;20255;-72
2022/12/01 12:44:06;;;;;;;2.90;1.90;;;8.70;43.10;;;;;;4994579;28;20229;-72
2022/12/01 12:46:44;;;;;;;1.75;1.15;;;8.80;42.60;;;;;;5019776;28;20227;-72
2022/12/01 12:49:34;;;;;;;2.33;1.60;;;8.90;42.60;;;;;;5020442;28;20177;-72
2022/12/01 12:52:05;;;;;;;2.20;1.63;;;9.00;42.60;;;;;;5020756;28;20208;-72
2022/12/01 12:54:40;;;;;;;2.10;1.55;;;9.00;42.90;;;;;;5007872;28;20180;-72
2022/12/01 12:57:32;;;;;;;1.80;1.20;;;9.20;42.10;;;;;;5017892;28;20566;-73
2022/12/01 13:00:01;;;;;;;2.13;1.50;;;9.20;42.20;;;;;;5014853;28;20213;-72
2022/12/01 13:02:42;;;;;;;1.80;1.10;;;9.20;42.00;;;;;;5024366;28;20184;-72
2022/12/01 13:05:25;;;;;;;2.33;1.52;;;9.20;42.10;;;;;;5014772;28;20193;-72
2022/12/01 13:08:09;;;;;;;1.90;1.38;;;9.30;40.80;;;;;;5012933;28;20193;-72
2022/12/01 13:11:06;;;;;;;1.70;1.10;;;9.00;42.30;;;;;;5013330;28;20199;-72
2022/12/01 13:13:51;;;;;;;2.22;1.58;;;9.10;42.60;;;;;;5013229;28;20653;-72
2022/12/01 13:16:23;;;;;;;3.20;1.85;;;9.10;42.30;;;;;;5009821;28;20177;-72
2022/12/01 13:19:01;;;;;;;1.75;1.20;;;9.40;43.00;;;;;;5008003;28;20220;-73
2022/12/01 13:21:35;;;;;;;2.33;1.65;;;9.10;41.90;;;;;;5012486;28;20212;-73
2022/12/01 13:24:02;;;;;;;1.90;1.33;;;8.50;42.40;;;;;;5012896;28;20190;-73
2022/12/01 13:26:28;;;;;;;3.25;2.22;;;9.10;42.40;;;;;;5011668;28;20224;-73